Time;durP1;ratioP1;P1;durP2;ratioP2;P2;SDS_P1;SDS_P2;PMS_P1;PMS_P2;Temp;Humidity;BMP_temperature;BMP_pressure;BME280_temperature;BME280_humidity;BME280_pressure;Samples;Min_cycle;Max_cycle;Signal;HPM_P1;HPM_P2
2021/10/25 00:02:20;;;;;;;19.50;15.95;;;;;;;4.14;100.00;99935.41;5073193;28;20226;-74
2021/10/25 00:04:48;;;;;;;19.05;14.30;;;;;;;4.27;100.00;99935.91;5075575;28;20282;-73
2021/10/25 00:07:14;;;;;;;19.10;14.98;;;;;;;4.08;100.00;99940.00;5055778;28;20606;-74
2021/10/25 00:09:41;;;;;;;20.50;15.70;;;;;;;4.05;100.00;99937.41;5054552;28;20397;-73
2021/10/25 00:12:08;;;;;;;22.65;15.82;;;;;;;4.09;100.00;99941.75;5054647;28;20192;-73
2021/10/25 00:14:34;;;;;;;18.08;15.77;;;;;;;3.88;100.00;99936.06;5053719;28;20376;-73
2021/10/25 00:17:01;;;;;;;21.65;15.40;;;;;;;3.85;100.00;99930.81;5055043;28;20200;-72
2021/10/25 00:19:28;;;;;;;18.35;15.93;;;;;;;3.90;100.00;99933.38;5055202;28;20184;-73
2021/10/25 00:21:56;;;;;;;19.20;15.57;;;;;;;3.84;100.00;99929.06;5036630;28;20198;-73
2021/10/25 00:24:22;;;;;;;18.80;14.80;;;;;;;3.76;100.00;99931.91;5039861;28;20194;-74
2021/10/25 00:26:49;;;;;;;21.52;16.05;;;;;;;3.65;100.00;99933.97;5054805;28;20207;-73
2021/10/25 00:29:15;;;;;;;18.27;14.63;;;;;;;3.78;100.00;99934.56;5054786;28;21060;-73
2021/10/25 00:31:42;;;;;;;19.77;14.98;;;;;;;3.69;100.00;99932.13;5053745;28;20293;-73
2021/10/25 00:34:09;;;;;;;23.92;14.75;;;;;;;3.81;100.00;99929.13;5054714;28;20195;-73
2021/10/25 00:36:35;;;;;;;18.50;14.30;;;;;;;3.86;100.00;99931.69;5054668;28;20181;-73
2021/10/25 00:39:05;;;;;;;19.67;16.00;;;;;;;3.86;100.00;99934.34;5070166;28;20290;-73
2021/10/25 00:41:31;;;;;;;21.45;15.60;;;;;;;3.84;100.00;99933.50;5041102;28;20201;-73
2021/10/25 00:43:58;;;;;;;20.52;14.65;;;;;;;3.90;100.00;99928.91;5043099;28;20280;-73
2021/10/25 00:46:25;;;;;;;20.45;15.15;;;;;;;3.89;100.00;99927.16;5054424;28;20237;-72
2021/10/25 00:48:52;;;;;;;20.40;16.88;;;;;;;3.89;100.00;99923.59;5054513;28;20307;-73
2021/10/25 00:51:18;;;;;;;20.75;14.68;;;;;;;3.73;100.00;99924.03;5063807;28;20854;-73
2021/10/25 00:53:45;;;;;;;20.67;14.45;;;;;;;3.90;100.00;99925.38;5074504;28;20208;-73
2021/10/25 00:56:13;;;;;;;26.00;16.70;;;;;;;3.72;100.00;99924.06;5054762;28;20195;-74
2021/10/25 00:58:39;;;;;;;21.88;16.20;;;;;;;3.62;100.00;99919.84;5054505;28;20241;-73
2021/10/25 01:01:07;;;;;;;22.75;15.57;;;;;;;3.55;100.00;99925.34;5052877;28;20202;-73
2021/10/25 01:03:35;;;;;;;19.48;14.57;;;;;;;3.61;100.00;99926.09;5043837;28;20247;-72
2021/10/25 01:06:02;;;;;;;16.83;14.40;;;;;;;3.77;100.00;99927.47;5054213;28;20219;-75
2021/10/25 01:08:33;;;;;;;16.80;14.07;;;;;;;3.71;100.00;99930.31;5057617;28;20240;-73
2021/10/25 01:11:00;;;;;;;21.27;15.10;;;;;;;3.57;100.00;99930.63;5059793;28;20191;-73
2021/10/25 01:13:28;;;;;;;26.35;15.55;;;;;;;3.54;100.00;99925.38;5053315;28;20188;-74
2021/10/25 01:15:55;;;;;;;19.40;14.70;;;;;;;3.45;100.00;99921.13;5053876;28;20566;-73
2021/10/25 01:18:22;;;;;;;17.45;14.25;;;;;;;3.59;100.00;99919.94;5053876;28;20284;-73
2021/10/25 01:20:50;;;;;;;18.38;13.88;;;;;;;3.54;100.00;99917.38;5052327;28;20627;-74
2021/10/25 01:23:16;;;;;;;17.45;13.93;;;;;;;3.54;100.00;99920.03;5053604;28;20203;-74
2021/10/25 01:25:44;;;;;;;24.02;14.82;;;;;;;3.50;100.00;99918.38;5050929;28;20256;-73
2021/10/25 01:28:12;;;;;;;21.98;15.85;;;;;;;3.51;100.00;99915.69;5044278;28;20671;-73
2021/10/25 01:30:38;;;;;;;19.23;15.10;;;;;;;3.50;100.00;99913.91;5033419;28;20583;-73
2021/10/25 01:33:10;;;;;;;22.02;15.02;;;;;;;3.68;100.00;99917.03;5051928;28;20205;-74
2021/10/25 01:35:37;;;;;;;22.55;14.57;;;;;;;3.93;100.00;99918.19;5052913;28;20188;-74
2021/10/25 01:38:05;;;;;;;19.73;15.25;;;;;;;3.91;100.00;99912.03;5043210;28;20293;-75
2021/10/25 01:40:32;;;;;;;21.98;15.70;;;;;;;3.71;100.00;99912.53;5036745;28;20581;-74
2021/10/25 01:42:59;;;;;;;19.35;14.68;;;;;;;3.54;100.00;99910.25;5052828;28;20203;-74
2021/10/25 01:45:26;;;;;;;18.40;14.98;;;;;;;3.44;100.00;99913.22;5035891;28;20200;-73
2021/10/25 01:47:53;;;;;;;18.30;14.68;;;;;;;3.45;100.00;99917.59;5038135;28;20217;-74
2021/10/25 01:50:19;;;;;;;19.20;14.30;;;;;;;3.58;100.00;99912.88;5052880;28;20195;-73
2021/10/25 01:52:47;;;;;;;20.20;14.45;;;;;;;3.35;100.00;99914.31;5037939;28;20215;-74
2021/10/25 01:55:15;;;;;;;16.60;13.68;;;;;;;3.27;100.00;99914.47;5032903;28;20293;-74
2021/10/25 01:57:42;;;;;;;20.65;15.70;;;;;;;3.29;100.00;99909.13;5043499;28;20264;-73
2021/10/25 02:00:09;;;;;;;18.40;14.57;;;;;;;3.26;100.00;99906.53;5073102;28;20291;-74
2021/10/25 02:02:36;;;;;;;20.67;14.18;;;;;;;3.07;100.00;99912.25;5069066;28;20203;-74
2021/10/25 02:05:03;;;;;;;14.73;12.63;;;;;;;3.17;100.00;99914.72;5033151;28;20620;-73
2021/10/25 02:07:29;;;;;;;16.67;13.23;;;;;;;3.15;100.00;99917.41;5048075;28;20673;-75
2021/10/25 02:09:56;;;;;;;18.27;14.30;;;;;;;3.08;100.00;99910.50;5037417;28;20552;-74
2021/10/25 02:12:24;;;;;;;17.60;13.15;;;;;;;3.00;100.00;99905.31;5041121;28;20186;-74
2021/10/25 02:14:51;;;;;;;18.35;13.30;;;;;;;3.19;100.00;99897.81;5053194;28;20186;-75
2021/10/25 02:17:17;;;;;;;20.98;16.20;;;;;;;3.33;100.00;99905.47;5052866;28;20537;-74
2021/10/25 02:19:46;;;;;;;18.63;13.48;;;;;;;3.60;100.00;99900.41;5052546;28;20194;-74
2021/10/25 02:22:13;;;;;;;20.15;14.27;;;;;;;3.41;100.00;99902.63;5052692;28;20617;-74
2021/10/25 02:24:40;;;;;;;17.23;13.93;;;;;;;3.49;100.00;99904.19;5053165;28;20229;-74
2021/10/25 02:27:07;;;;;;;15.77;12.70;;;;;;;3.53;100.00;99899.69;5048256;28;20522;-73
2021/10/25 02:29:36;;;;;;;15.85;13.50;;;;;;;3.69;100.00;99886.84;5032509;28;20230;-74
2021/10/25 02:32:03;;;;;;;17.25;13.73;;;;;;;3.58;100.00;99889.78;5048635;28;20268;-74
2021/10/25 02:34:30;;;;;;;19.48;13.23;;;;;;;3.28;100.00;99889.63;5051845;28;20240;-74
2021/10/25 02:36:57;;;;;;;20.90;13.70;;;;;;;3.17;100.00;99894.31;5056589;28;20228;-74
2021/10/25 02:39:24;;;;;;;20.13;14.60;;;;;;;3.14;100.00;99894.38;5072572;28;20188;-74
2021/10/25 02:41:51;;;;;;;18.98;13.55;;;;;;;3.19;100.00;99892.50;5054649;28;20610;-73
2021/10/25 02:44:18;;;;;;;19.20;13.63;;;;;;;3.05;100.00;99882.19;5051948;28;20234;-74
2021/10/25 02:46:45;;;;;;;22.92;15.00;;;;;;;2.92;100.00;99878.03;5043014;28;20210;-74
2021/10/25 02:49:12;;;;;;;18.65;13.93;;;;;;;3.21;100.00;99884.44;5032247;28;20195;-74
2021/10/25 02:51:39;;;;;;;20.65;13.95;;;;;;;3.36;100.00;99876.09;5045109;28;20201;-74
2021/10/25 02:54:05;;;;;;;17.92;12.75;;;;;;;3.45;100.00;99883.00;5052456;28;20647;-74
2021/10/25 02:56:32;;;;;;;17.30;13.63;;;;;;;3.59;100.00;99883.53;5051362;28;20191;-74
2021/10/25 02:58:58;;;;;;;19.42;14.40;;;;;;;3.64;100.00;99867.44;5052245;28;20196;-74
2021/10/25 03:01:25;;;;;;;18.02;14.05;;;;;;;3.62;99.99;99872.81;5051787;28;20205;-74
2021/10/25 03:03:53;;;;;;;18.00;12.63;;;;;;;3.36;100.00;99869.91;5051950;28;20282;-73
2021/10/25 03:06:20;;;;;;;19.58;14.13;;;;;;;3.17;100.00;99866.84;5052300;28;20532;-73
2021/10/25 03:08:46;;;;;;;18.83;14.02;;;;;;;2.92;100.00;99846.13;5051962;28;20317;-73
2021/10/25 03:11:13;;;;;;;21.38;14.55;;;;;;;3.01;100.00;99861.88;5051657;28;20200;-74
2021/10/25 03:13:39;;;;;;;18.50;14.40;;;;;;;3.23;100.00;99866.66;5052149;28;20594;-74
2021/10/25 03:16:06;;;;;;;18.08;13.95;;;;;;;3.24;100.00;99868.44;5051701;28;20197;-74
2021/10/25 03:18:33;;;;;;;18.90;13.30;;;;;;;3.20;100.00;99867.63;5051531;28;20270;-73
2021/10/25 03:21:01;;;;;;;17.77;13.23;;;;;;;3.14;100.00;99867.75;5056317;28;20287;-74
2021/10/25 03:23:28;;;;;;;19.50;14.02;;;;;;;3.22;100.00;99868.47;5072018;28;20200;-73
2021/10/25 03:25:54;;;;;;;19.02;14.50;;;;;;;3.42;100.00;99867.97;5050023;28;20201;-73
2021/10/25 03:28:21;;;;;;;17.13;13.15;;;;;;;3.46;100.00;99867.00;5051750;28;20224;-73
2021/10/25 03:30:48;;;;;;;16.98;12.50;;;;;;;3.63;100.00;99866.56;5039135;28;20551;-73
2021/10/25 03:33:15;;;;;;;17.33;12.65;;;;;;;3.62;100.00;99869.25;5032137;28;20575;-74
2021/10/25 03:35:42;;;;;;;17.33;14.43;;;;;;;3.69;99.78;99870.88;5031974;28;20200;-74
2021/10/25 03:38:12;;;;;;;23.30;14.50;;;;;;;3.49;99.41;99858.94;5040305;28;20186;-73
2021/10/25 03:40:40;;;;;;;19.90;14.07;;;;;;;3.61;100.00;99867.50;5051064;28;20567;-73
2021/10/25 03:43:07;;;;;;;21.15;15.35;;;;;;;3.70;100.00;99868.16;5049785;28;20199;-73
2021/10/25 03:45:37;;;;;;;18.38;14.60;;;;;;;3.81;97.93;99872.34;5050786;28;20303;-74
2021/10/25 03:48:07;;;;;;;20.92;15.57;;;;;;;3.82;96.20;99869.66;5051745;28;20991;-73
2021/10/25 03:50:36;;;;;;;19.52;16.08;;;;;;;3.80;95.80;99863.47;5051222;28;20190;-73
2021/10/25 03:53:08;;;;;;;23.15;16.65;;;;;;;3.86;95.21;99862.44;5051721;28;20544;-74
2021/10/25 03:55:40;;;;;;;23.02;17.27;;;;;;;3.78;95.37;99862.63;5049893;28;20188;-72
2021/10/25 04:25:52;;;;;;;17.05;13.15;;;;;;;3.44;97.36;99844.88;4962039;28;20203;-75
2021/10/25 04:28:22;;;;;;;18.42;13.73;;;;;;;3.38;98.13;99842.34;5037963;28;20239;-74
2021/10/25 04:30:55;;;;;;;16.55;13.85;;;;;;;3.40;98.72;99845.84;5072074;28;20194;-74
2021/10/25 04:33:22;;;;;;;18.10;12.98;;;;;;;3.28;99.45;99843.50;5034850;28;20192;-75
2021/10/25 04:35:49;;;;;;;18.48;14.07;;;;;;;3.49;99.76;99847.41;5048534;28;20209;-74
2021/10/25 04:38:15;;;;;;;18.77;14.20;;;;;;;3.67;98.66;99852.25;5054738;28;20182;-73
2021/10/25 04:40:42;;;;;;;18.15;13.60;;;;;;;3.59;98.75;99848.03;5054504;28;20659;-75
2021/10/25 04:43:12;;;;;;;18.60;13.90;;;;;;;3.66;98.58;99854.94;5053820;28;20225;-74
2021/10/25 04:45:40;;;;;;;17.70;14.13;;;;;;;3.78;99.18;99853.75;5051861;28;20190;-73
2021/10/25 04:48:07;;;;;;;16.75;13.40;;;;;;;3.88;98.08;99857.94;5053951;28;20232;-73
2021/10/25 04:50:34;;;;;;;16.95;13.93;;;;;;;3.99;97.72;99847.00;5063206;28;20187;-74
2021/10/25 04:53:01;;;;;;;18.48;14.18;;;;;;;4.02;97.27;99845.09;5054260;28;20201;-73
2021/10/25 04:55:28;;;;;;;15.95;13.57;;;;;;;3.91;97.11;99845.41;5054243;28;20192;-74
2021/10/25 04:57:54;;;;;;;17.42;14.35;;;;;;;3.70;97.27;99848.63;5054159;28;20619;-73
2021/10/25 05:00:21;;;;;;;17.95;14.38;;;;;;;3.34;99.54;99840.66;5045547;28;20218;-73
2021/10/25 05:02:49;;;;;;;21.13;14.98;;;;;;;3.29;100.00;99838.13;5063262;28;20621;-74
2021/10/25 05:05:16;;;;;;;18.90;15.88;;;;;;;3.38;100.00;99834.34;5057815;28;20191;-73
2021/10/25 05:07:42;;;;;;;19.13;15.00;;;;;;;3.26;100.00;99835.53;5062696;28;20628;-73
2021/10/25 05:10:09;;;;;;;19.00;14.70;;;;;;;3.11;100.00;99843.88;5064053;28;20274;-73
2021/10/25 05:12:36;;;;;;;19.98;15.60;;;;;;;3.22;100.00;99833.00;5053804;28;20281;-75
2021/10/25 05:15:03;;;;;;;16.70;14.27;;;;;;;3.44;100.00;99834.22;5054010;28;20207;-72
2021/10/25 05:17:29;;;;;;;16.52;14.23;;;;;;;3.49;100.00;99834.97;5073867;28;20224;-73
2021/10/25 05:19:57;;;;;;;20.73;14.02;;;;;;;3.48;100.00;99832.31;5056394;28;20226;-74
2021/10/25 05:22:24;;;;;;;20.85;15.20;;;;;;;3.25;100.00;99832.91;5053494;28;20194;-74
2021/10/25 05:24:52;;;;;;;22.48;16.88;;;;;;;3.17;100.00;99825.13;5053111;28;20204;-74
2021/10/25 05:27:21;;;;;;;20.92;15.25;;;;;;;3.14;100.00;99827.84;5047199;28;20190;-74
2021/10/25 05:29:47;;;;;;;20.52;14.50;;;;;;;3.11;100.00;99825.25;5052945;28;20288;-73
2021/10/25 05:32:14;;;;;;;18.65;14.65;;;;;;;3.24;100.00;99824.06;5051834;28;20287;-73
2021/10/25 05:34:41;;;;;;;23.48;15.23;;;;;;;3.00;100.00;99828.16;5047645;28;20190;-73
2021/10/25 05:37:09;;;;;;;21.15;14.70;;;;;;;2.87;100.00;99821.38;5051880;28;20192;-74
2021/10/25 05:39:36;;;;;;;26.58;16.27;;;;;;;3.06;100.00;99817.41;5036586;28;20279;-74
2021/10/25 05:42:06;;;;;;;19.95;15.18;;;;;;;3.17;100.00;99818.94;5050507;28;20194;-72
2021/10/25 05:44:33;;;;;;;25.80;17.08;;;;;;;3.33;100.00;99830.94;5045309;28;20240;-74
2021/10/25 05:47:00;;;;;;;19.15;14.57;;;;;;;3.30;100.00;99820.34;5046821;28;20198;-73
2021/10/25 05:49:26;;;;;;;19.40;14.30;;;;;;;3.30;100.00;99823.00;5053141;28;20300;-74
2021/10/25 05:51:53;;;;;;;19.48;15.55;;;;;;;3.08;100.00;99820.03;5052984;28;20200;-72
2021/10/25 05:54:22;;;;;;;21.80;14.68;;;;;;;3.13;100.00;99813.66;5053536;28;20197;-74
2021/10/25 05:56:48;;;;;;;22.70;14.95;;;;;;;3.17;100.00;99816.28;5053466;28;20208;-72
2021/10/25 05:59:15;;;;;;;21.40;15.70;;;;;;;3.20;100.00;99816.19;5053271;28;20278;-72
2021/10/25 06:01:44;;;;;;;24.27;16.88;;;;;;;3.26;100.00;99814.25;5052620;28;20194;-72
2021/10/25 06:04:12;;;;;;;17.95;15.20;;;;;;;3.09;100.00;99812.00;5053053;28;20280;-72
2021/10/25 06:06:39;;;;;;;22.02;15.60;;;;;;;3.21;100.00;99817.94;5052931;28;20194;-73
2021/10/25 06:09:06;;;;;;;17.65;14.95;;;;;;;3.17;100.00;99811.81;5053144;28;20230;-72
2021/10/25 06:11:35;;;;;;;19.20;14.85;;;;;;;3.27;100.00;99817.78;5052961;28;20562;-71
2021/10/25 06:14:04;;;;;;;20.08;13.57;;;;;;;3.33;100.00;99817.63;5052887;28;20206;-73
2021/10/25 06:16:39;;;;;;;17.48;13.45;;;;;;;3.37;100.00;99816.66;5046561;28;20274;-72
2021/10/25 06:19:06;;;;;;;17.00;13.52;;;;;;;3.44;100.00;99828.88;5065864;28;20630;-73
2021/10/25 06:21:33;;;;;;;19.60;14.00;;;;;;;3.59;99.82;99826.75;5052639;28;20298;-72
2021/10/25 06:24:00;;;;;;;19.45;15.20;;;;;;;3.48;99.51;99825.25;5052199;28;20605;-72
2021/10/25 06:26:27;;;;;;;19.52;13.82;;;;;;;3.62;99.09;99822.22;5051863;28;20197;-73
2021/10/25 06:28:55;;;;;;;22.23;15.25;;;;;;;3.75;98.11;99825.41;5052138;28;20684;-73
2021/10/25 06:31:22;;;;;;;20.25;14.93;;;;;;;3.75;96.85;99822.75;5049922;28;20284;-72
2021/10/25 06:33:49;;;;;;;19.83;14.88;;;;;;;3.82;96.13;99828.78;5052036;28;20206;-73
2021/10/25 06:36:19;;;;;;;20.15;16.13;;;;;;;3.83;95.33;99826.09;5052397;28;20272;-73
2021/10/25 06:38:53;;;;;;;18.90;16.15;;;;;;;3.85;95.49;99831.38;5052430;28;20188;-73
2021/10/25 06:41:21;;;;;;;22.65;15.70;;;;;;;3.77;95.10;99831.56;5051810;28;20205;-73
2021/10/25 06:43:48;;;;;;;20.65;14.55;;;;;;;3.71;94.90;99837.94;5052095;28;20599;-73
2021/10/25 06:46:17;;;;;;;17.70;14.80;;;;;;;3.61;95.82;99835.56;5036923;28;20185;-73
2021/10/25 06:48:44;;;;;;;19.25;13.98;;;;;;;3.40;95.55;99839.66;5050699;28;20248;-74
2021/10/25 06:51:11;;;;;;;21.90;14.60;;;;;;;3.36;97.53;99844.16;5045974;28;20205;-73
2021/10/25 06:53:37;;;;;;;18.30;15.25;;;;;;;3.30;97.65;99834.56;5051476;28;20191;-74
2021/10/25 06:56:04;;;;;;;18.83;14.93;;;;;;;3.28;98.21;99839.03;5037768;28;20716;-74
2021/10/25 06:58:31;;;;;;;24.52;17.95;;;;;;;3.35;98.27;99847.75;5051486;28;20281;-73
2021/10/25 07:00:59;;;;;;;21.17;15.77;;;;;;;3.69;97.44;99849.56;5052121;28;20202;-73
2021/10/25 07:03:27;;;;;;;23.40;15.98;;;;;;;3.69;95.25;99849.56;5051756;28;20615;-73
2021/10/25 07:05:55;;;;;;;23.40;16.83;;;;;;;3.88;94.70;99849.94;5049426;28;20218;-73
2021/10/25 07:08:22;;;;;;;19.20;16.25;;;;;;;4.15;92.98;99848.31;5050248;28;20539;-74
2021/10/25 07:10:49;;;;;;;21.75;16.45;;;;;;;4.05;92.90;99849.47;5051591;28;20214;-73
2021/10/25 07:13:16;;;;;;;21.73;17.00;;;;;;;3.92;93.27;99863.13;5052199;28;20187;-73
2021/10/25 07:15:47;;;;;;;19.10;15.30;;;;;;;3.72;94.25;99861.00;5051637;28;20226;-73
2021/10/25 07:18:18;;;;;;;18.83;15.10;;;;;;;3.69;96.10;99865.53;5051288;28;20192;-72
2021/10/25 08:00:05;;;;;;;19.77;15.68;;;;;;;5.31;92.41;99873.28;5035146;28;20672;-73
2021/10/25 08:07:57;;;;;;;20.08;14.85;;;;;;;5.59;91.64;99864.38;5056191;28;20181;-74
2021/10/25 08:10:28;;;;;;;27.65;19.38;;;;;;;5.70;91.30;99874.69;5051695;28;20193;-74
2021/10/25 08:13:10;;;;;;;32.85;18.35;;;;;;;5.80;90.56;99868.13;5054791;28;20707;-75
2021/10/25 08:15:39;;;;;;;32.60;18.85;;;;;;;5.98;90.10;99862.16;5053691;28;20251;-73
2021/10/25 08:18:13;;;;;;;28.10;20.02;;;;;;;6.07;90.03;99857.44;5053379;28;20189;-74
2021/10/25 08:20:40;;;;;;;27.38;19.00;;;;;;;6.16;89.64;99854.41;5047156;28;20186;-74
2021/10/25 08:23:07;;;;;;;26.52;19.75;;;;;;;6.37;88.74;99850.94;5045691;28;20285;-73
2021/10/25 08:25:35;;;;;;;30.65;21.20;;;;;;;6.58;87.82;99851.06;5038234;28;20288;-73
2021/10/25 08:28:02;;;;;;;21.63;18.63;;;;;;;6.77;86.28;99856.63;5046565;28;20626;-73
2021/10/25 08:30:29;;;;;;;36.30;20.88;;;;;;;6.78;85.81;99853.00;5054307;28;20237;-73
2021/10/25 08:35:51;;;;;;;35.97;19.90;;;;;;;7.06;84.93;99855.50;5052975;28;20201;-74
2021/10/25 08:41:06;;;;;;;32.13;20.02;;;;;;;7.28;83.69;99844.75;5054478;28;20730;-73
2021/10/25 08:43:32;;;;;;;23.73;18.48;;;;;;;7.32;83.62;99852.63;5054304;28;20189;-75
2021/10/25 08:46:02;;;;;;;21.75;18.42;;;;;;;7.53;82.58;99836.63;5051984;28;20547;-75
2021/10/25 08:48:30;;;;;;;27.63;18.60;;;;;;;7.63;82.61;99843.31;5053168;28;20216;-74
2021/10/25 08:50:57;;;;;;;29.35;21.95;;;;;;;7.67;82.65;99833.34;5054662;28;20187;-74
2021/10/25 08:53:23;;;;;;;28.73;20.10;;;;;;;7.70;83.67;99834.06;5054571;28;20231;-73
2021/10/25 08:55:51;;;;;;;23.15;19.10;;;;;;;7.69;83.70;99831.47;5053458;28;20277;-74
2021/10/25 08:58:19;;;;;;;28.42;19.58;;;;;;;7.68;84.46;99833.25;5054189;28;20499;-75
2021/10/25 09:00:49;;;;;;;27.00;18.67;;;;;;;7.94;84.22;99825.94;5054312;28;20190;-73
2021/10/25 09:03:16;;;;;;;23.05;18.90;;;;;;;8.11;82.97;99825.16;5054359;28;20207;-74
2021/10/25 09:05:53;;;;;;;26.00;19.70;;;;;;;8.21;83.10;99820.25;5054268;28;20194;-74
2021/10/25 09:08:20;;;;;;;28.95;18.25;;;;;;;8.24;83.45;99821.00;5053918;28;20298;-72
2021/10/25 09:10:48;;;;;;;21.40;17.15;;;;;;;8.36;83.74;99815.06;5056906;28;20203;-74
2021/10/25 09:13:17;;;;;;;23.58;17.85;;;;;;;8.62;82.52;99817.56;5052345;28;20189;-73
2021/10/25 09:15:50;;;;;;;21.13;18.05;;;;;;;8.88;81.40;99811.81;5062246;28;20504;-75
2021/10/25 09:18:19;;;;;;;21.90;16.38;;;;;;;9.09;80.21;99803.66;5073685;28;20185;-75
2021/10/25 09:20:50;;;;;;;19.13;15.35;;;;;;;9.37;78.82;99812.09;5073272;28;20493;-73
2021/10/25 09:23:20;;;;;;;18.30;15.02;;;;;;;9.46;77.43;99804.53;5066758;28;20279;-74
2021/10/25 09:25:52;;;;;;;16.83;13.80;;;;;;;9.63;76.29;99798.28;5052313;28;20188;-73
2021/10/25 09:28:24;;;;;;;14.85;10.65;;;;;;;9.93;74.60;99801.25;5053049;28;20722;-73
2021/10/25 09:30:54;;;;;;;13.55;9.85;;;;;;;9.94;74.27;99794.91;5053513;28;20203;-73
2021/10/25 09:33:22;;;;;;;16.75;10.40;;;;;;;10.07;73.83;99798.69;5053236;28;20215;-73
2021/10/25 09:35:56;;;;;;;13.02;9.10;;;;;;;10.21;73.11;99797.94;5049581;28;20646;-74
2021/10/25 09:38:29;;;;;;;12.07;10.43;;;;;;;10.43;71.92;99795.88;5052409;28;20276;-74
2021/10/25 09:49:29;;;;;;;14.48;10.07;;;;;;;11.14;68.66;99774.88;5020058;28;20241;-74
2021/10/25 09:51:57;;;;;;;10.45;8.98;;;;;;;11.06;68.33;99772.66;5047693;28;20197;-73
2021/10/25 09:54:26;;;;;;;13.30;10.30;;;;;;;11.22;68.43;99776.19;5051977;28;20215;-72
2021/10/25 09:57:03;;;;;;;12.25;8.23;;;;;;;11.40;67.41;99779.63;5052134;28;20185;-73
2021/10/25 09:59:35;;;;;;;12.93;7.80;;;;;;;11.50;67.23;99768.31;5050386;28;20212;-73
2021/10/25 10:02:04;;;;;;;11.95;8.80;;;;;;;11.65;67.12;99767.41;5049135;28;20601;-73
2021/10/25 10:04:31;;;;;;;13.20;8.80;;;;;;;11.72;67.37;99773.28;5044963;28;20221;-74
2021/10/25 10:06:59;;;;;;;12.38;8.35;;;;;;;11.87;66.82;99770.56;5051079;28;20639;-75
2021/10/25 10:09:26;;;;;;;18.35;8.90;;;;;;;12.15;66.13;99766.16;5052113;28;20221;-73
2021/10/25 10:11:54;;;;;;;10.00;9.00;;;;;;;12.33;65.63;99774.97;5051868;28;20185;-73
2021/10/25 10:14:22;;;;;;;13.45;8.98;;;;;;;12.48;65.35;99767.72;5044360;28;20207;-74
2021/10/25 10:16:49;;;;;;;12.18;8.90;;;;;;;12.54;65.13;99763.75;5046555;28;21003;-73
2021/10/25 10:19:24;;;;;;;11.57;9.45;;;;;;;12.62;65.33;99769.56;5050024;28;20185;-72
2021/10/25 10:21:53;;;;;;;13.35;9.20;;;;;;;12.82;65.17;99765.53;5050336;28;20192;-72
2021/10/25 10:24:24;;;;;;;16.70;10.07;;;;;;;12.89;64.90;99775.03;5044443;28;20192;-72
2021/10/25 10:26:55;;;;;;;16.48;9.40;;;;;;;12.97;64.79;99771.81;5038898;28;20224;-74
2021/10/25 10:29:22;;;;;;;12.45;9.90;;;;;;;13.14;64.59;99772.44;5050363;28;20307;-74
2021/10/25 10:31:59;;;;;;;11.77;9.65;;;;;;;13.21;64.36;99772.91;5045580;28;20543;-74
2021/10/25 10:34:38;;;;;;;11.23;9.02;;;;;;;13.37;64.05;99774.63;5047227;28;20259;-74
2021/10/25 10:37:16;;;;;;;14.65;9.93;;;;;;;13.52;63.94;99750.13;5049031;28;20185;-74
2021/10/25 10:39:42;;;;;;;11.43;9.80;;;;;;;13.63;64.09;99751.19;5051105;28;20539;-73
2021/10/25 10:42:11;;;;;;;15.93;9.95;;;;;;;13.63;64.61;99745.78;5050876;28;20202;-74
2021/10/25 10:44:49;;;;;;;14.38;10.82;;;;;;;13.88;64.20;99743.13;5050314;28;20195;-72
2021/10/25 10:47:19;;;;;;;9.68;8.32;;;;;;;14.12;65.21;99740.53;5051601;28;20285;-73
2021/10/25 10:49:51;;;;;;;14.48;9.82;;;;;;;14.24;65.14;99741.50;5050901;28;20676;-74
2021/10/25 10:52:27;;;;;;;10.10;7.47;;;;;;;14.39;64.68;99740.41;5051641;28;20233;-73
2021/10/25 10:55:09;;;;;;;8.30;6.85;;;;;;;14.47;64.80;99741.69;5051095;28;20634;-72
2021/10/25 11:00:31;;;;;;;10.07;6.85;;;;;;;14.62;65.22;99740.63;5039308;28;20190;-72
2021/10/25 11:03:00;;;;;;;8.65;6.88;;;;;;;14.64;65.52;99738.69;5050886;28;20222;-73
2021/10/25 11:05:34;;;;;;;8.73;6.97;;;;;;;14.72;65.38;99736.28;5051219;28;20203;-72
2021/10/25 11:08:03;;;;;;;9.73;7.40;;;;;;;14.82;65.29;99732.91;5050402;28;20971;-74
2021/10/25 11:10:32;;;;;;;8.93;6.95;;;;;;;14.98;64.73;99738.91;5050799;28;20690;-73
2021/10/25 11:13:03;;;;;;;10.32;7.50;;;;;;;14.89;65.03;99737.75;5050349;28;20192;-73
2021/10/25 11:15:37;;;;;;;9.45;8.05;;;;;;;15.00;65.01;99736.97;5050441;28;20207;-73
2021/10/25 11:18:04;;;;;;;10.20;7.70;;;;;;;15.00;65.21;99740.53;5050374;28;20191;-73
2021/10/25 11:20:33;;;;;;;8.90;6.82;;;;;;;15.02;65.30;99737.72;5047431;28;20238;-74
2021/10/25 11:23:05;;;;;;;7.80;7.00;;;;;;;14.79;66.08;99739.41;5054855;28;20197;-73
2021/10/25 11:25:44;;;;;;;8.60;7.70;;;;;;;14.86;66.61;99740.69;5059121;28;20610;-74
2021/10/25 11:28:16;;;;;;;8.55;7.28;;;;;;;15.08;66.02;99734.56;5047971;28;20228;-74
2021/10/25 11:30:43;;;;;;;12.35;9.98;;;;;;;15.20;65.70;99727.34;5047445;28;20218;-74
2021/10/25 11:33:10;;;;;;;9.80;7.80;;;;;;;15.32;65.22;99730.97;5050249;28;20221;-73
2021/10/25 11:35:47;;;;;;;11.63;8.02;;;;;;;15.29;65.29;99723.06;5049671;28;20188;-73
2021/10/25 11:38:14;;;;;;;9.10;8.18;;;;;;;15.38;65.33;99716.94;5049222;28;20189;-74
2021/10/25 11:40:41;;;;;;;7.68;6.80;;;;;;;15.22;65.99;99725.38;5050355;28;20200;-73
2021/10/25 11:43:07;;;;;;;9.43;6.88;;;;;;;15.26;65.82;99718.72;5046424;28;20204;-74
2021/10/25 11:45:34;;;;;;;10.15;8.55;;;;;;;15.53;64.95;99706.75;5034633;28;20223;-74
2021/10/25 11:48:01;;;;;;;8.10;7.00;;;;;;;15.47;65.21;99699.94;5041611;28;20292;-73
2021/10/25 11:50:31;;;;;;;11.98;9.25;;;;;;;15.38;65.43;99692.53;5047838;28;20241;-74
2021/10/25 11:53:02;;;;;;;8.98;7.50;;;;;;;15.51;65.26;99698.75;5043763;28;20301;-74
2021/10/25 11:55:30;;;;;;;10.02;7.10;;;;;;;15.38;65.83;99698.81;5050214;28;20191;-71
2021/10/25 11:58:00;;;;;;;9.30;6.90;;;;;;;15.46;66.35;99698.22;5050391;28;20232;-74
2021/10/25 12:00:29;;;;;;;11.82;8.85;;;;;;;15.67;65.41;99690.28;5045774;28;20192;-74
2021/10/25 12:02:57;;;;;;;11.43;7.80;;;;;;;15.68;64.99;99686.56;5049255;28;20198;-73
2021/10/25 12:05:26;;;;;;;9.30;7.22;;;;;;;15.64;65.15;99688.63;5049649;28;20215;-73
2021/10/25 12:07:55;;;;;;;8.70;7.70;;;;;;;15.61;65.37;99682.59;5049829;28;20196;-72
2021/10/25 12:10:25;;;;;;;8.95;7.32;;;;;;;15.62;65.71;99687.91;5049853;28;20225;-73
2021/10/25 12:12:53;;;;;;;8.73;6.40;;;;;;;15.74;65.87;99682.56;5045157;28;20279;-72
2021/10/25 12:15:21;;;;;;;8.70;7.80;;;;;;;15.96;65.05;99673.56;5050030;28;20193;-74
2021/10/25 12:17:49;;;;;;;9.23;6.85;;;;;;;16.03;64.45;99677.50;5050006;28;20251;-74
2021/10/25 12:20:23;;;;;;;8.00;7.20;;;;;;;16.11;64.01;99677.78;5053132;28;20219;-72
2021/10/25 12:22:59;;;;;;;11.82;6.80;;;;;;;16.13;63.85;99674.94;5053432;28;20647;-73
2021/10/25 12:25:27;;;;;;;8.30;7.50;;;;;;;16.15;64.20;99684.69;5053871;28;20201;-73
2021/10/25 12:27:58;;;;;;;14.48;10.85;;;;;;;16.03;64.30;99680.22;5052836;28;20534;-74
2021/10/25 12:30:27;;;;;;;8.63;7.82;;;;;;;16.15;63.99;99678.41;5050783;28;20565;-73
2021/10/25 12:32:55;;;;;;;8.20;7.35;;;;;;;16.30;63.83;99674.44;5053958;28;20209;-74
2021/10/25 12:35:37;;;;;;;8.23;7.13;;;;;;;16.50;63.21;99666.53;5034386;28;20640;-73
2021/10/25 12:38:05;;;;;;;8.20;7.40;;;;;;;16.75;62.67;99666.22;5033790;28;20575;-73
2021/10/25 12:40:40;;;;;;;8.05;7.25;;;;;;;16.90;61.65;99671.44;5033469;28;20183;-73
2021/10/25 12:43:07;;;;;;;10.02;7.63;;;;;;;16.88;62.04;99657.97;5038510;28;20203;-73
2021/10/25 12:45:39;;;;;;;8.80;7.70;;;;;;;16.85;61.92;99661.78;5044815;28;20651;-74
2021/10/25 12:48:07;;;;;;;7.47;6.65;;;;;;;16.95;60.51;99661.03;5033883;28;20186;-73
2021/10/25 12:50:35;;;;;;;9.75;7.80;;;;;;;17.01;61.10;99660.53;5040933;28;20212;-74
2021/10/25 12:53:05;;;;;;;12.82;8.25;;;;;;;17.05;60.94;99656.56;5053708;28;20288;-73
2021/10/25 12:55:32;;;;;;;8.02;7.20;;;;;;;17.01;60.98;99636.03;5038133;28;20509;-74
2021/10/25 12:58:00;;;;;;;10.85;8.10;;;;;;;17.14;61.10;99638.56;5033433;28;20237;-73